Shijiazhuang, China
Current Conditions -  °F | °C
As of 8:00 PM on Friday 24 Oct 2014 (Local Time) from ZBSJ Reporting Station
Moderate Fog Moderate Fog  
Wind Chill: 54°   Ceiling: Unl
Heat Index: 54°   Visibility: 0.5mi
Dew Point: 54°   Wind: 4mph
Humidity: 100%   Direction: 320°NW
Pressure: 29.85"   Gusts: NA
Location:  38.05°N, 114.48°E
Report Text: ZBSJ 241200Z 32002MPS 0800 R15/1100U FG NSC 12/12 Q1011 NOSIG
Loading
Personal Weather Stations






























Interactive Weather Map
Tropical Storm Tracking
New forecast layout! Learn more

10-Day Weather Forecast

Advertisements
Track Severe Weather on mobile